Weather at Enfidha - Hammamet International Airport

Public forecast

Using degrees Celsius for public forecast. Weather courtesy of forecast.io.

Closest aviation weather report (METAR) to Enfidha - Hammamet International Airport

Closest report is Monastir Habib Bourguiba International Airport, 24.5 nm (45.4 km) SE. Retrieved 2020/11/30 19:30 UTC (11 minutes ago):

DTMB 301930Z 36009KT 8000 FEW026 18/14 Q1021

Closest aviation forecast (TAF) to Enfidha - Hammamet International Airport

Closest forecast is Monastir Habib Bourguiba International Airport, 24.5 nm (45.4 km) SE. Retrieved 2020/11/30 18:12 UTC (1 hour ago):

TAF DTMB 301700Z 3018/0118 01010KT 8000 SCT020 BECMG 3022/3024 27005KT PROB40 TEMPO 0103/0106 2000 BR